Hauptseite
METAR-TAF:

METAR-TAF

Flughäfen :

L.F. Wade International Airport

Bermuda, Bermuda

Breite: 32-22N, Länge: 064-41W, Höhe: 6 m

Beobachtung

Neuester Wetterbericht von vor 49 Minuten, um 01:55 UTC
Wind 9 kt aus Südost
Temperatur 21°C
Luftfeuchtigkeit 73%
Luftdruck 1020 hPa
Sichtweite 10 km oder mehr
Leicht bewölkt in der Höhe von 2500 ft
Leicht bewölkt in der Höhe von 30000 ft

METAR: TXKF 230155Z 13009KT 9999 FEW025 FEW300 21/16 Q1020

Zeit: 23:44 (02:44 UTC)

Prognose

Neuester Wetterbericht von vor 3 Stunden und 14 Minuten, um 23:30 UTC
Gültige Prognose vom 23 um 00 UTC bis 23 um 24 UTC
Wind 5 kt aus Ost/Südost
Sichtweite 10 km oder mehr
Aufgelockert bewölkt in der Höhe von 2000 ft
Durchbrochene Bewölkung in der Höhe von 30000 ft

TAF: TXKF 222330Z 2300/2324 12005KT 9999 SCT020 BKN300

Wetterbeobachtungen und Prognosen von mehr als 4000 Flughäfen (METAR und TAF Bericht).

Die verfügbaren Stationen werden durch gelbe und rote Markierungen auf der Karte dargestellt.

Führen Sie die Maus auf sie, um den Namen der Station zu sehen.

Darauf klicken, um die Beobachtung von Wetterbeobachtungen und Prognosen zu sehen.

Um die Karte zu ändern : klicken Sie auf den grünen Tasten mit einem schwarzen Kreuz Zum Vergrößern, auf den grünen Button mit einem Gedankenstrich zu verkleinern, oder auf die grünen Pfeile für benachbarte Karten.


METAR-TAF: